sensor_id;sensor_type;location;lat;lon;timestamp;temperature;humidity
18321;DHT22;54904;54.350;18.664;2023-07-13T00:01:50;21.20;99.90
18321;DHT22;54904;54.350;18.664;2023-07-13T00:04:19;21.20;99.90
18321;DHT22;54904;54.350;18.664;2023-07-13T00:06:47;21.20;99.90
18321;DHT22;54904;54.350;18.664;2023-07-13T00:09:15;21.20;99.90
18321;DHT22;54904;54.350;18.664;2023-07-13T00:11:43;21.30;99.90
18321;DHT22;54904;54.350;18.664;2023-07-13T00:14:11;21.20;99.90
18321;DHT22;54904;54.350;18.664;2023-07-13T00:16:39;21.20;99.90
18321;DHT22;54904;54.350;18.664;2023-07-13T00:19:10;21.10;99.90
18321;DHT22;54904;54.350;18.664;2023-07-13T00:21:37;21.10;99.90
18321;DHT22;54904;54.350;18.664;2023-07-13T00:24:05;21.10;99.90
18321;DHT22;54904;54.350;18.664;2023-07-13T00:26:32;21.10;99.90
18321;DHT22;54904;54.350;18.664;2023-07-13T00:29:00;21.10;99.90
18321;DHT22;54904;54.350;18.664;2023-07-13T00:31:29;21.10;99.90
18321;DHT22;54904;54.350;18.664;2023-07-13T00:33:57;21.10;99.90
18321;DHT22;54904;54.350;18.664;2023-07-13T00:36:25;21.10;99.90
18321;DHT22;54904;54.350;18.664;2023-07-13T00:38:53;21.10;99.90
18321;DHT22;54904;54.350;18.664;2023-07-13T00:41:20;21.00;99.90
18321;DHT22;54904;54.350;18.664;2023-07-13T00:43:47;21.00;99.90
18321;DHT22;54904;54.350;18.664;2023-07-13T00:46:19;21.00;99.90
18321;DHT22;54904;54.350;18.664;2023-07-13T00:48:47;21.00;99.90
18321;DHT22;54904;54.350;18.664;2023-07-13T00:51:19;20.90;99.90
18321;DHT22;54904;54.350;18.664;2023-07-13T00:53:47;20.90;99.90
18321;DHT22;54904;54.350;18.664;2023-07-13T00:56:14;20.90;99.90
18321;DHT22;54904;54.350;18.664;2023-07-13T00:58:45;20.90;99.90
18321;DHT22;54904;54.350;18.664;2023-07-13T01:01:13;20.90;99.90
18321;DHT22;54904;54.350;18.664;2023-07-13T01:03:40;20.80;99.90
18321;DHT22;54904;54.350;18.664;2023-07-13T01:06:07;20.80;99.90
18321;DHT22;54904;54.350;18.664;2023-07-13T01:08:36;20.80;99.90
18321;DHT22;54904;54.350;18.664;2023-07-13T01:11:05;20.80;99.90
18321;DHT22;54904;54.350;18.664;2023-07-13T01:13:34;20.80;99.90
18321;DHT22;54904;54.350;18.664;2023-07-13T01:16:04;20.80;99.90
18321;DHT22;54904;54.350;18.664;2023-07-13T01:18:33;20.70;99.90
18321;DHT22;54904;54.350;18.664;2023-07-13T01:21:04;20.70;99.90
18321;DHT22;54904;54.350;18.664;2023-07-13T01:23:32;20.70;99.90
18321;DHT22;54904;54.350;18.664;2023-07-13T01:26:00;20.70;99.90
18321;DHT22;54904;54.350;18.664;2023-07-13T01:28:28;20.70;99.90
18321;DHT22;54904;54.350;18.664;2023-07-13T01:30:58;20.60;99.90
18321;DHT22;54904;54.350;18.664;2023-07-13T01:33:26;20.60;99.90
18321;DHT22;54904;54.350;18.664;2023-07-13T01:35:53;20.60;99.90
18321;DHT22;54904;54.350;18.664;2023-07-13T01:38:25;20.60;99.90
18321;DHT22;54904;54.350;18.664;2023-07-13T01:40:53;20.60;99.90
18321;DHT22;54904;54.350;18.664;2023-07-13T01:43:22;20.60;99.90
18321;DHT22;54904;54.350;18.664;2023-07-13T01:45:49;20.50;99.90
18321;DHT22;54904;54.350;18.664;2023-07-13T01:48:17;20.50;99.90
18321;DHT22;54904;54.350;18.664;2023-07-13T01:50:45;20.50;99.90
18321;DHT22;54904;54.350;18.664;2023-07-13T01:53:12;20.50;99.90
18321;DHT22;54904;54.350;18.664;2023-07-13T01:55:42;20.50;99.90
18321;DHT22;54904;54.350;18.664;2023-07-13T01:58:09;20.50;99.90
18321;DHT22;54904;54.350;18.664;2023-07-13T02:00:36;20.50;99.90
18321;DHT22;54904;54.350;18.664;2023-07-13T02:03:03;20.50;99.90
18321;DHT22;54904;54.350;18.664;2023-07-13T02:05:31;20.50;99.90
18321;DHT22;54904;54.350;18.664;2023-07-13T02:07:58;20.50;99.90
18321;DHT22;54904;54.350;18.664;2023-07-13T02:10:26;20.50;99.90
18321;DHT22;54904;54.350;18.664;2023-07-13T02:12:55;20.50;99.90
18321;DHT22;54904;54.350;18.664;2023-07-13T02:15:22;20.50;99.90
18321;DHT22;54904;54.350;18.664;2023-07-13T02:17:50;20.40;99.90
18321;DHT22;54904;54.350;18.664;2023-07-13T02:20:17;20.50;99.90
18321;DHT22;54904;54.350;18.664;2023-07-13T02:22:44;20.50;99.90
18321;DHT22;54904;54.350;18.664;2023-07-13T02:25:11;20.50;99.90
18321;DHT22;54904;54.350;18.664;2023-07-13T02:27:38;20.50;99.90
18321;DHT22;54904;54.350;18.664;2023-07-13T02:30:08;20.60;99.90
18321;DHT22;54904;54.350;18.664;2023-07-13T02:32:35;20.60;99.90
18321;DHT22;54904;54.350;18.664;2023-07-13T02:35:03;20.60;99.90
18321;DHT22;54904;54.350;18.664;2023-07-13T02:37:30;20.70;99.90
18321;DHT22;54904;54.350;18.664;2023-07-13T02:39:57;20.70;99.90
18321;DHT22;54904;54.350;18.664;2023-07-13T02:42:24;20.70;99.90
18321;DHT22;54904;54.350;18.664;2023-07-13T02:44:52;20.70;99.90
18321;DHT22;54904;54.350;18.664;2023-07-13T02:47:20;20.70;99.90
18321;DHT22;54904;54.350;18.664;2023-07-13T02:49:47;20.60;99.90
18321;DHT22;54904;54.350;18.664;2023-07-13T02:52:14;20.70;99.90
18321;DHT22;54904;54.350;18.664;2023-07-13T02:54:42;20.70;99.90
18321;DHT22;54904;54.350;18.664;2023-07-13T02:57:10;20.70;99.90
18321;DHT22;54904;54.350;18.664;2023-07-13T02:59:37;20.70;99.90
18321;DHT22;54904;54.350;18.664;2023-07-13T03:02:04;20.70;99.90
18321;DHT22;54904;54.350;18.664;2023-07-13T03:04:34;20.70;99.90
18321;DHT22;54904;54.350;18.664;2023-07-13T03:07:02;20.70;99.90
18321;DHT22;54904;54.350;18.664;2023-07-13T03:09:35;20.70;99.90
18321;DHT22;54904;54.350;18.664;2023-07-13T03:12:04;20.60;99.90
18321;DHT22;54904;54.350;18.664;2023-07-13T03:14:32;20.60;99.90
18321;DHT22;54904;54.350;18.664;2023-07-13T03:17:01;20.60;99.90
18321;DHT22;54904;54.350;18.664;2023-07-13T03:19:32;20.70;99.90
18321;DHT22;54904;54.350;18.664;2023-07-13T03:22:00;20.70;99.90
18321;DHT22;54904;54.350;18.664;2023-07-13T03:24:28;20.70;99.90
18321;DHT22;54904;54.350;18.664;2023-07-13T03:26:57;20.80;99.90
18321;DHT22;54904;54.350;18.664;2023-07-13T03:29:24;20.70;99.90
18321;DHT22;54904;54.350;18.664;2023-07-13T03:31:51;20.70;99.90
18321;DHT22;54904;54.350;18.664;2023-07-13T03:34:20;20.70;99.90
18321;DHT22;54904;54.350;18.664;2023-07-13T03:36:48;20.70;99.90
18321;DHT22;54904;54.350;18.664;2023-07-13T03:39:15;20.70;99.90
18321;DHT22;54904;54.350;18.664;2023-07-13T03:41:46;20.70;99.90
18321;DHT22;54904;54.350;18.664;2023-07-13T03:44:16;20.70;99.90
18321;DHT22;54904;54.350;18.664;2023-07-13T03:46:44;20.70;99.90
18321;DHT22;54904;54.350;18.664;2023-07-13T03:49:13;20.80;99.90
18321;DHT22;54904;54.350;18.664;2023-07-13T03:51:40;20.80;99.90
18321;DHT22;54904;54.350;18.664;2023-07-13T03:54:08;20.80;99.90
18321;DHT22;54904;54.350;18.664;2023-07-13T03:56:36;20.90;99.90
18321;DHT22;54904;54.350;18.664;2023-07-13T03:59:06;20.90;99.90
18321;DHT22;54904;54.350;18.664;2023-07-13T04:01:33;20.90;99.90
18321;DHT22;54904;54.350;18.664;2023-07-13T04:04:00;20.90;99.90
18321;DHT22;54904;54.350;18.664;2023-07-13T04:06:29;20.90;99.90
18321;DHT22;54904;54.350;18.664;2023-07-13T04:08:58;20.80;99.90
18321;DHT22;54904;54.350;18.664;2023-07-13T04:11:29;20.80;99.90
18321;DHT22;54904;54.350;18.664;2023-07-13T04:13:57;20.90;99.90
18321;DHT22;54904;54.350;18.664;2023-07-13T04:16:25;20.90;99.90
18321;DHT22;54904;54.350;18.664;2023-07-13T04:18:55;20.90;99.90
18321;DHT22;54904;54.350;18.664;2023-07-13T04:21:26;20.80;99.90
18321;DHT22;54904;54.350;18.664;2023-07-13T04:23:53;20.90;99.90
18321;DHT22;54904;54.350;18.664;2023-07-13T04:26:20;20.90;99.90
18321;DHT22;54904;54.350;18.664;2023-07-13T04:28:50;20.90;99.90
18321;DHT22;54904;54.350;18.664;2023-07-13T04:31:17;21.00;99.90
18321;DHT22;54904;54.350;18.664;2023-07-13T04:33:45;21.00;99.90
18321;DHT22;54904;54.350;18.664;2023-07-13T04:36:12;21.00;99.90
18321;DHT22;54904;54.350;18.664;2023-07-13T04:38:39;21.10;99.90
18321;DHT22;54904;54.350;18.664;2023-07-13T04:41:08;21.10;99.90
18321;DHT22;54904;54.350;18.664;2023-07-13T04:43:36;21.20;99.90
18321;DHT22;54904;54.350;18.664;2023-07-13T04:46:06;21.30;99.90
18321;DHT22;54904;54.350;18.664;2023-07-13T04:48:33;21.30;99.90
18321;DHT22;54904;54.350;18.664;2023-07-13T04:51:01;21.40;99.90
18321;DHT22;54904;54.350;18.664;2023-07-13T04:53:29;21.40;99.90
18321;DHT22;54904;54.350;18.664;2023-07-13T04:55:56;21.50;99.90
18321;DHT22;54904;54.350;18.664;2023-07-13T04:58:24;21.50;99.90
18321;DHT22;54904;54.350;18.664;2023-07-13T05:00:51;21.60;99.90
18321;DHT22;54904;54.350;18.664;2023-07-13T05:03:20;21.60;99.90
18321;DHT22;54904;54.350;18.664;2023-07-13T05:05:55;21.60;99.90
18321;DHT22;54904;54.350;18.664;2023-07-13T05:08:22;21.70;99.90
18321;DHT22;54904;54.350;18.664;2023-07-13T05:10:50;21.80;99.90
18321;DHT22;54904;54.350;18.664;2023-07-13T05:13:17;21.80;99.90
18321;DHT22;54904;54.350;18.664;2023-07-13T05:15:45;21.80;99.90
18321;DHT22;54904;54.350;18.664;2023-07-13T05:18:12;21.90;99.90
18321;DHT22;54904;54.350;18.664;2023-07-13T05:20:40;21.90;99.90
18321;DHT22;54904;54.350;18.664;2023-07-13T05:23:07;21.90;99.90
18321;DHT22;54904;54.350;18.664;2023-07-13T05:25:34;22.00;99.90
18321;DHT22;54904;54.350;18.664;2023-07-13T05:28:02;22.10;99.90
18321;DHT22;54904;54.350;18.664;2023-07-13T05:30:29;22.10;99.90
18321;DHT22;54904;54.350;18.664;2023-07-13T05:32:58;22.10;99.90
18321;DHT22;54904;54.350;18.664;2023-07-13T05:35:25;22.10;99.90
18321;DHT22;54904;54.350;18.664;2023-07-13T05:37:54;22.10;99.90
18321;DHT22;54904;54.350;18.664;2023-07-13T05:40:21;22.10;99.90
18321;DHT22;54904;54.350;18.664;2023-07-13T05:42:48;22.10;99.90
18321;DHT22;54904;54.350;18.664;2023-07-13T05:45:15;22.20;99.90
18321;DHT22;54904;54.350;18.664;2023-07-13T05:47:42;22.20;99.90
18321;DHT22;54904;54.350;18.664;2023-07-13T05:50:09;22.20;99.90
18321;DHT22;54904;54.350;18.664;2023-07-13T05:52:37;22.30;99.90
18321;DHT22;54904;54.350;18.664;2023-07-13T05:55:06;22.20;99.90
18321;DHT22;54904;54.350;18.664;2023-07-13T05:57:33;22.30;99.90
18321;DHT22;54904;54.350;18.664;2023-07-13T06:00:00;22.30;99.90
18321;DHT22;54904;54.350;18.664;2023-07-13T06:02:38;22.30;99.90
18321;DHT22;54904;54.350;18.664;2023-07-13T06:05:05;22.30;99.90
18321;DHT22;54904;54.350;18.664;2023-07-13T06:07:33;22.40;99.90
18321;DHT22;54904;54.350;18.664;2023-07-13T06:10:00;22.40;99.90
18321;DHT22;54904;54.350;18.664;2023-07-13T06:12:28;22.40;99.90
18321;DHT22;54904;54.350;18.664;2023-07-13T06:14:55;22.50;99.90
18321;DHT22;54904;54.350;18.664;2023-07-13T06:17:22;22.50;99.90
18321;DHT22;54904;54.350;18.664;2023-07-13T06:19:49;22.50;99.90
18321;DHT22;54904;54.350;18.664;2023-07-13T06:22:16;22.60;99.90
18321;DHT22;54904;54.350;18.664;2023-07-13T06:24:43;22.60;99.90
18321;DHT22;54904;54.350;18.664;2023-07-13T06:27:11;22.70;99.90
18321;DHT22;54904;54.350;18.664;2023-07-13T06:29:39;22.70;99.90
18321;DHT22;54904;54.350;18.664;2023-07-13T06:32:07;22.90;99.90
18321;DHT22;54904;54.350;18.664;2023-07-13T06:34:35;22.80;99.90
18321;DHT22;54904;54.350;18.664;2023-07-13T06:37:02;22.90;99.90
18321;DHT22;54904;54.350;18.664;2023-07-13T06:39:29;22.90;99.90
18321;DHT22;54904;54.350;18.664;2023-07-13T06:41:56;23.00;99.90
18321;DHT22;54904;54.350;18.664;2023-07-13T06:44:23;23.00;99.90
18321;DHT22;54904;54.350;18.664;2023-07-13T06:46:52;23.10;99.90
18321;DHT22;54904;54.350;18.664;2023-07-13T06:49:19;23.10;99.90
18321;DHT22;54904;54.350;18.664;2023-07-13T06:51:49;23.10;99.90
18321;DHT22;54904;54.350;18.664;2023-07-13T06:54:16;23.10;99.90
18321;DHT22;54904;54.350;18.664;2023-07-13T06:56:43;23.10;99.90
18321;DHT22;54904;54.350;18.664;2023-07-13T06:59:10;23.10;99.90
18321;DHT22;54904;54.350;18.664;2023-07-13T07:01:37;23.10;99.90
18321;DHT22;54904;54.350;18.664;2023-07-13T07:04:06;23.10;99.90
18321;DHT22;54904;54.350;18.664;2023-07-13T07:06:33;23.20;99.90
18321;DHT22;54904;54.350;18.664;2023-07-13T07:09:05;23.10;99.90
18321;DHT22;54904;54.350;18.664;2023-07-13T07:11:32;23.10;99.90
18321;DHT22;54904;54.350;18.664;2023-07-13T07:13:59;23.10;99.90
18321;DHT22;54904;54.350;18.664;2023-07-13T07:16:26;23.20;99.90
18321;DHT22;54904;54.350;18.664;2023-07-13T07:18:53;23.20;99.90
18321;DHT22;54904;54.350;18.664;2023-07-13T07:21:22;23.30;99.90
18321;DHT22;54904;54.350;18.664;2023-07-13T07:23:49;23.30;99.90
18321;DHT22;54904;54.350;18.664;2023-07-13T07:26:16;23.30;99.90
18321;DHT22;54904;54.350;18.664;2023-07-13T07:28:43;23.40;99.90
18321;DHT22;54904;54.350;18.664;2023-07-13T07:31:11;23.40;99.90
18321;DHT22;54904;54.350;18.664;2023-07-13T07:33:38;23.50;99.90
18321;DHT22;54904;54.350;18.664;2023-07-13T07:36:06;23.50;99.90
18321;DHT22;54904;54.350;18.664;2023-07-13T07:38:34;23.60;99.90
18321;DHT22;54904;54.350;18.664;2023-07-13T07:41:03;23.60;99.90
18321;DHT22;54904;54.350;18.664;2023-07-13T07:43:30;23.70;99.90
18321;DHT22;54904;54.350;18.664;2023-07-13T07:45:57;23.70;99.90
18321;DHT22;54904;54.350;18.664;2023-07-13T07:48:24;23.70;99.90
18321;DHT22;54904;54.350;18.664;2023-07-13T07:50:52;23.70;99.90
18321;DHT22;54904;54.350;18.664;2023-07-13T07:53:19;23.60;99.90
18321;DHT22;54904;54.350;18.664;2023-07-13T07:55:47;23.60;99.90
18321;DHT22;54904;54.350;18.664;2023-07-13T07:58:17;23.50;99.90
18321;DHT22;54904;54.350;18.664;2023-07-13T08:00:48;23.60;99.90
18321;DHT22;54904;54.350;18.664;2023-07-13T08:03:15;23.60;99.90
18321;DHT22;54904;54.350;18.664;2023-07-13T08:05:42;23.60;99.90
18321;DHT22;54904;54.350;18.664;2023-07-13T08:08:16;23.70;99.90
18321;DHT22;54904;54.350;18.664;2023-07-13T08:10:43;23.90;99.80
18321;DHT22;54904;54.350;18.664;2023-07-13T08:13:11;23.80;99.60
18321;DHT22;54904;54.350;18.664;2023-07-13T08:15:38;23.90;99.50
18321;DHT22;54904;54.350;18.664;2023-07-13T08:18:06;24.00;99.40
18321;DHT22;54904;54.350;18.664;2023-07-13T08:20:37;24.10;99.20
18321;DHT22;54904;54.350;18.664;2023-07-13T08:23:04;24.10;99.10
18321;DHT22;54904;54.350;18.664;2023-07-13T08:25:31;24.10;98.90
18321;DHT22;54904;54.350;18.664;2023-07-13T08:27:58;24.20;98.80
18321;DHT22;54904;54.350;18.664;2023-07-13T08:30:27;24.20;98.60
18321;DHT22;54904;54.350;18.664;2023-07-13T08:32:54;24.30;98.50
18321;DHT22;54904;54.350;18.664;2023-07-13T08:35:21;24.40;98.40
18321;DHT22;54904;54.350;18.664;2023-07-13T08:37:48;24.40;98.30
18321;DHT22;54904;54.350;18.664;2023-07-13T08:40:17;24.40;98.20
18321;DHT22;54904;54.350;18.664;2023-07-13T08:42:53;24.30;98.10
18321;DHT22;54904;54.350;18.664;2023-07-13T08:45:23;24.20;97.80
18321;DHT22;54904;54.350;18.664;2023-07-13T08:47:54;24.30;97.50
18321;DHT22;54904;54.350;18.664;2023-07-13T08:50:27;24.30;97.30
18321;DHT22;54904;54.350;18.664;2023-07-13T08:52:56;24.30;97.10
18321;DHT22;54904;54.350;18.664;2023-07-13T08:55:27;24.40;96.90
18321;DHT22;54904;54.350;18.664;2023-07-13T08:58:00;24.50;96.80
18321;DHT22;54904;54.350;18.664;2023-07-13T09:00:37;24.60;96.60
18321;DHT22;54904;54.350;18.664;2023-07-13T09:03:16;24.70;96.40
18321;DHT22;54904;54.350;18.664;2023-07-13T09:05:50;24.80;95.90
18321;DHT22;54904;54.350;18.664;2023-07-13T09:08:43;24.70;95.80
18321;DHT22;54904;54.350;18.664;2023-07-13T09:11:23;24.70;95.70
18321;DHT22;54904;54.350;18.664;2023-07-13T09:13:59;24.70;95.70
18321;DHT22;54904;54.350;18.664;2023-07-13T09:16:29;24.90;95.70
18321;DHT22;54904;54.350;18.664;2023-07-13T09:19:01;24.90;95.50
18321;DHT22;54904;54.350;18.664;2023-07-13T09:21:34;25.00;95.60
18321;DHT22;54904;54.350;18.664;2023-07-13T09:24:27;25.00;95.50
18321;DHT22;54904;54.350;18.664;2023-07-13T09:26:55;25.00;95.40
18321;DHT22;54904;54.350;18.664;2023-07-13T09:29:31;25.00;95.00
18321;DHT22;54904;54.350;18.664;2023-07-13T09:32:06;25.10;94.90
18321;DHT22;54904;54.350;18.664;2023-07-13T09:34:35;25.10;94.50
18321;DHT22;54904;54.350;18.664;2023-07-13T09:37:03;25.30;94.40
18321;DHT22;54904;54.350;18.664;2023-07-13T09:39:37;25.30;94.00
18321;DHT22;54904;54.350;18.664;2023-07-13T09:42:14;25.40;93.80
18321;DHT22;54904;54.350;18.664;2023-07-13T09:44:52;25.50;93.90
18321;DHT22;54904;54.350;18.664;2023-07-13T09:47:21;25.50;93.40
18321;DHT22;54904;54.350;18.664;2023-07-13T09:49:56;25.60;93.60
18321;DHT22;54904;54.350;18.664;2023-07-13T09:52:24;25.50;93.20
18321;DHT22;54904;54.350;18.664;2023-07-13T09:54:54;25.60;93.00
18321;DHT22;54904;54.350;18.664;2023-07-13T09:57:26;25.60;92.90
18321;DHT22;54904;54.350;18.664;2023-07-13T09:59:56;25.60;92.70
18321;DHT22;54904;54.350;18.664;2023-07-13T10:02:29;25.70;92.50
18321;DHT22;54904;54.350;18.664;2023-07-13T10:05:02;25.80;92.30
18321;DHT22;54904;54.350;18.664;2023-07-13T10:07:30;25.80;91.90
18321;DHT22;54904;54.350;18.664;2023-07-13T10:09:59;25.90;91.70
18321;DHT22;54904;54.350;18.664;2023-07-13T10:12:29;25.90;91.70
18321;DHT22;54904;54.350;18.664;2023-07-13T10:15:00;25.90;91.30
18321;DHT22;54904;54.350;18.664;2023-07-13T10:17:31;25.80;91.00
18321;DHT22;54904;54.350;18.664;2023-07-13T10:20:03;25.90;90.90
18321;DHT22;54904;54.350;18.664;2023-07-13T10:22:37;26.00;90.90
18321;DHT22;54904;54.350;18.664;2023-07-13T10:25:15;26.10;90.80
18321;DHT22;54904;54.350;18.664;2023-07-13T10:27:45;26.30;90.70
18321;DHT22;54904;54.350;18.664;2023-07-13T10:30:17;26.40;90.10
18321;DHT22;54904;54.350;18.664;2023-07-13T10:32:47;26.40;90.50
18321;DHT22;54904;54.350;18.664;2023-07-13T10:35:18;26.40;90.90
18321;DHT22;54904;54.350;18.664;2023-07-13T10:37:50;26.30;91.60
18321;DHT22;54904;54.350;18.664;2023-07-13T10:40:22;26.20;92.30
18321;DHT22;54904;54.350;18.664;2023-07-13T10:42:53;26.00;92.90
18321;DHT22;54904;54.350;18.664;2023-07-13T10:45:22;25.80;93.50
18321;DHT22;54904;54.350;18.664;2023-07-13T10:47:52;25.60;94.00
18321;DHT22;54904;54.350;18.664;2023-07-13T10:50:24;25.40;94.30
18321;DHT22;54904;54.350;18.664;2023-07-13T10:52:53;25.20;94.70
18321;DHT22;54904;54.350;18.664;2023-07-13T10:55:36;25.10;95.10
18321;DHT22;54904;54.350;18.664;2023-07-13T10:58:12;25.00;95.50
18321;DHT22;54904;54.350;18.664;2023-07-13T11:00:56;24.90;95.90
18321;DHT22;54904;54.350;18.664;2023-07-13T11:03:27;24.80;96.30
18321;DHT22;54904;54.350;18.664;2023-07-13T11:06:08;24.80;96.60
18321;DHT22;54904;54.350;18.664;2023-07-13T11:08:38;24.90;96.70
18321;DHT22;54904;54.350;18.664;2023-07-13T11:11:34;25.10;96.70
18321;DHT22;54904;54.350;18.664;2023-07-13T11:14:03;25.10;96.80
18321;DHT22;54904;54.350;18.664;2023-07-13T11:16:43;25.20;96.80
18321;DHT22;54904;54.350;18.664;2023-07-13T11:19:38;25.40;96.80
18321;DHT22;54904;54.350;18.664;2023-07-13T11:22:25;25.50;96.90
18321;DHT22;54904;54.350;18.664;2023-07-13T11:25:00;25.60;97.30
18321;DHT22;54904;54.350;18.664;2023-07-13T11:27:39;25.70;97.00
18321;DHT22;54904;54.350;18.664;2023-07-13T11:30:34;25.80;97.20
18321;DHT22;54904;54.350;18.664;2023-07-13T11:33:17;25.90;96.80
18321;DHT22;54904;54.350;18.664;2023-07-13T11:35:51;26.00;96.70
18321;DHT22;54904;54.350;18.664;2023-07-13T11:38:22;26.10;96.50
18321;DHT22;54904;54.350;18.664;2023-07-13T11:40:54;26.10;96.30
18321;DHT22;54904;54.350;18.664;2023-07-13T11:43:23;26.00;96.20
18321;DHT22;54904;54.350;18.664;2023-07-13T11:45:51;26.00;96.10
18321;DHT22;54904;54.350;18.664;2023-07-13T11:48:20;26.00;96.20
18321;DHT22;54904;54.350;18.664;2023-07-13T11:50:53;25.90;96.20
18321;DHT22;54904;54.350;18.664;2023-07-13T11:53:27;25.90;96.20
18321;DHT22;54904;54.350;18.664;2023-07-13T11:55:55;25.90;96.20
18321;DHT22;54904;54.350;18.664;2023-07-13T11:58:25;25.90;96.30
18321;DHT22;54904;54.350;18.664;2023-07-13T12:00:56;25.90;96.20
18321;DHT22;54904;54.350;18.664;2023-07-13T12:03:27;25.80;96.20
18321;DHT22;54904;54.350;18.664;2023-07-13T12:06:02;25.80;96.10
18321;DHT22;54904;54.350;18.664;2023-07-13T12:08:38;25.80;96.00
18321;DHT22;54904;54.350;18.664;2023-07-13T12:11:14;25.80;96.00
18321;DHT22;54904;54.350;18.664;2023-07-13T12:13:44;25.90;96.00
18321;DHT22;54904;54.350;18.664;2023-07-13T12:16:14;26.00;96.00
18321;DHT22;54904;54.350;18.664;2023-07-13T12:18:43;25.90;95.90
18321;DHT22;54904;54.350;18.664;2023-07-13T12:21:18;26.00;95.80
18321;DHT22;54904;54.350;18.664;2023-07-13T12:23:48;26.10;95.80
18321;DHT22;54904;54.350;18.664;2023-07-13T12:26:17;26.10;95.70
18321;DHT22;54904;54.350;18.664;2023-07-13T12:28:47;26.20;95.60
18321;DHT22;54904;54.350;18.664;2023-07-13T12:31:33;26.20;95.40
18321;DHT22;54904;54.350;18.664;2023-07-13T12:34:06;26.30;95.30
18321;DHT22;54904;54.350;18.664;2023-07-13T12:36:35;26.30;95.10
18321;DHT22;54904;54.350;18.664;2023-07-13T12:39:13;26.30;94.90
18321;DHT22;54904;54.350;18.664;2023-07-13T12:41:41;26.30;94.80
18321;DHT22;54904;54.350;18.664;2023-07-13T12:44:14;26.30;94.50
18321;DHT22;54904;54.350;18.664;2023-07-13T12:46:55;26.30;94.50
18321;DHT22;54904;54.350;18.664;2023-07-13T12:49:26;26.40;94.50
18321;DHT22;54904;54.350;18.664;2023-07-13T12:51:59;26.40;94.40
18321;DHT22;54904;54.350;18.664;2023-07-13T12:54:29;26.40;94.40
18321;DHT22;54904;54.350;18.664;2023-07-13T12:56:58;26.40;94.40
18321;DHT22;54904;54.350;18.664;2023-07-13T12:59:31;26.30;94.30
18321;DHT22;54904;54.350;18.664;2023-07-13T13:02:02;26.30;94.30
18321;DHT22;54904;54.350;18.664;2023-07-13T13:04:44;26.10;94.30
18321;DHT22;54904;54.350;18.664;2023-07-13T13:07:12;26.00;94.30
18321;DHT22;54904;54.350;18.664;2023-07-13T13:09:40;25.80;94.40
18321;DHT22;54904;54.350;18.664;2023-07-13T13:12:08;25.80;94.50
18321;DHT22;54904;54.350;18.664;2023-07-13T13:14:36;25.70;94.60
18321;DHT22;54904;54.350;18.664;2023-07-13T13:17:21;25.70;94.60
18321;DHT22;54904;54.350;18.664;2023-07-13T13:19:50;25.70;94.60
18321;DHT22;54904;54.350;18.664;2023-07-13T13:22:20;25.80;94.60
18321;DHT22;54904;54.350;18.664;2023-07-13T13:24:49;25.80;94.50
18321;DHT22;54904;54.350;18.664;2023-07-13T13:27:17;25.90;94.40
18321;DHT22;54904;54.350;18.664;2023-07-13T13:29:45;26.00;94.30
18321;DHT22;54904;54.350;18.664;2023-07-13T13:32:14;26.00;94.20
18321;DHT22;54904;54.350;18.664;2023-07-13T13:34:42;26.10;94.20
18321;DHT22;54904;54.350;18.664;2023-07-13T13:37:17;26.10;94.10
18321;DHT22;54904;54.350;18.664;2023-07-13T13:39:45;26.10;94.00
18321;DHT22;54904;54.350;18.664;2023-07-13T13:42:14;26.10;93.30
18321;DHT22;54904;54.350;18.664;2023-07-13T13:44:41;26.10;93.30
18321;DHT22;54904;54.350;18.664;2023-07-13T13:47:22;26.10;93.30
18321;DHT22;54904;54.350;18.664;2023-07-13T13:49:53;26.10;93.20
18321;DHT22;54904;54.350;18.664;2023-07-13T13:52:20;26.10;93.10
18321;DHT22;54904;54.350;18.664;2023-07-13T13:54:47;26.10;93.10
18321;DHT22;54904;54.350;18.664;2023-07-13T13:57:15;26.20;93.10
18321;DHT22;54904;54.350;18.664;2023-07-13T13:59:43;26.10;93.10
18321;DHT22;54904;54.350;18.664;2023-07-13T14:02:22;26.20;93.20
18321;DHT22;54904;54.350;18.664;2023-07-13T14:04:54;26.10;93.10
18321;DHT22;54904;54.350;18.664;2023-07-13T14:07:23;26.10;93.00
18321;DHT22;54904;54.350;18.664;2023-07-13T14:09:50;26.10;93.00
18321;DHT22;54904;54.350;18.664;2023-07-13T14:12:18;26.20;92.90
18321;DHT22;54904;54.350;18.664;2023-07-13T14:14:46;26.20;92.80
18321;DHT22;54904;54.350;18.664;2023-07-13T14:17:20;26.10;92.80
18321;DHT22;54904;54.350;18.664;2023-07-13T14:19:50;26.00;92.80
18321;DHT22;54904;54.350;18.664;2023-07-13T14:22:23;25.90;93.00
18321;DHT22;54904;54.350;18.664;2023-07-13T14:24:51;25.80;93.00
18321;DHT22;54904;54.350;18.664;2023-07-13T14:27:21;25.80;93.10
18321;DHT22;54904;54.350;18.664;2023-07-13T14:29:49;25.80;93.10
18321;DHT22;54904;54.350;18.664;2023-07-13T14:32:16;25.80;93.10
18321;DHT22;54904;54.350;18.664;2023-07-13T14:34:43;25.80;93.00
18321;DHT22;54904;54.350;18.664;2023-07-13T14:37:13;25.80;92.90
18321;DHT22;54904;54.350;18.664;2023-07-13T14:39:43;25.70;92.80
18321;DHT22;54904;54.350;18.664;2023-07-13T14:42:10;25.70;92.80
18321;DHT22;54904;54.350;18.664;2023-07-13T14:44:39;25.60;92.80
18321;DHT22;54904;54.350;18.664;2023-07-13T14:47:07;25.60;92.80
18321;DHT22;54904;54.350;18.664;2023-07-13T14:49:37;25.50;92.70
18321;DHT22;54904;54.350;18.664;2023-07-13T14:52:10;25.50;92.60
18321;DHT22;54904;54.350;18.664;2023-07-13T14:54:38;25.50;92.60
18321;DHT22;54904;54.350;18.664;2023-07-13T14:57:10;25.50;92.60
18321;DHT22;54904;54.350;18.664;2023-07-13T14:59:39;25.50;92.60
18321;DHT22;54904;54.350;18.664;2023-07-13T15:02:15;25.50;92.70
18321;DHT22;54904;54.350;18.664;2023-07-13T15:04:42;25.50;92.70
18321;DHT22;54904;54.350;18.664;2023-07-13T15:07:10;25.50;92.60
18321;DHT22;54904;54.350;18.664;2023-07-13T15:09:39;25.50;92.50
18321;DHT22;54904;54.350;18.664;2023-07-13T15:12:06;25.50;92.50
18321;DHT22;54904;54.350;18.664;2023-07-13T15:14:34;25.50;92.40
18321;DHT22;54904;54.350;18.664;2023-07-13T15:17:03;25.50;92.40
18321;DHT22;54904;54.350;18.664;2023-07-13T15:19:31;25.40;92.40
18321;DHT22;54904;54.350;18.664;2023-07-13T15:21:58;25.40;92.30
18321;DHT22;54904;54.350;18.664;2023-07-13T15:24:25;25.30;92.30
18321;DHT22;54904;54.350;18.664;2023-07-13T15:26:53;25.20;92.20
18321;DHT22;54904;54.350;18.664;2023-07-13T15:29:20;25.10;92.20
18321;DHT22;54904;54.350;18.664;2023-07-13T15:31:48;25.10;92.20